createdAt,value
2018-12-24T00:02:10.854Z,101003.84
2018-12-24T00:04:37.220Z,101012.91
2018-12-24T00:07:03.479Z,101006.44
2018-12-24T00:09:29.745Z,101011.44
2018-12-24T00:11:56.002Z,101005.40
2018-12-24T00:14:22.278Z,101012.43
2018-12-24T00:16:48.615Z,101006.69
2018-12-24T00:19:14.864Z,101008.48
2018-12-24T00:21:41.105Z,101001.50
2018-12-24T00:24:07.507Z,100990.13
2018-12-24T00:26:33.753Z,100988.86
2018-12-24T00:29:00.097Z,100994.94
2018-12-24T00:31:26.380Z,100992.97
2018-12-24T00:33:52.737Z,100990.31
2018-12-24T00:36:18.993Z,100997.84
2018-12-24T00:38:45.361Z,100997.06
2018-12-24T00:41:11.622Z,100991.38
2018-12-24T00:43:37.959Z,100984.65
2018-12-24T00:46:04.220Z,100991.18
2018-12-24T00:48:30.563Z,100993.23
2018-12-24T00:50:56.818Z,100991.95
2018-12-24T00:53:23.164Z,100995.83
2018-12-24T00:55:49.431Z,100984.06
2018-12-24T00:58:15.698Z,100985.20
2018-12-24T01:00:41.949Z,100974.20
2018-12-24T01:03:08.199Z,100984.90
2018-12-24T01:05:34.548Z,100980.06
2018-12-24T01:08:00.911Z,100981.47
2018-12-24T01:10:27.255Z,100982.66
2018-12-24T01:12:53.518Z,100983.56
2018-12-24T01:15:19.767Z,100980.09
2018-12-24T01:17:46.131Z,100975.46
2018-12-24T01:20:12.482Z,100973.25
2018-12-24T01:22:38.736Z,100973.86
2018-12-24T01:25:05.082Z,100971.98
2018-12-24T01:27:31.440Z,100972.31
2018-12-24T01:29:57.684Z,100969.55
2018-12-24T01:32:24.048Z,100967.11
2018-12-24T01:34:50.395Z,100964.89
2018-12-24T01:37:16.644Z,100963.17
2018-12-24T01:39:45.991Z,100969.53
2018-12-24T01:42:12.232Z,100962.64
2018-12-24T01:44:38.593Z,100964.49
2018-12-24T01:47:04.825Z,100961.00
2018-12-24T01:49:31.087Z,100963.86
2018-12-24T01:51:57.427Z,100957.98
2018-12-24T01:54:23.781Z,100957.03
2018-12-24T01:56:50.059Z,100964.17
2018-12-24T01:59:16.955Z,100967.74
2018-12-24T02:01:44.554Z,100961.92
2018-12-24T02:04:10.826Z,100960.91
2018-12-24T02:06:37.067Z,100950.45
2018-12-24T02:09:44.752Z,100953.81
2018-12-24T02:12:10.996Z,100953.63
2018-12-24T02:14:37.258Z,100952.99
2018-12-24T02:17:03.502Z,100952.70
2018-12-24T02:19:29.757Z,100946.63
2018-12-24T02:21:56.115Z,100944.95
2018-12-24T02:24:22.368Z,100951.39
2018-12-24T02:26:48.719Z,100946.30
2018-12-24T02:29:14.981Z,100946.78
2018-12-24T02:31:41.325Z,100934.09
2018-12-24T02:34:07.680Z,100913.95
2018-12-24T02:36:33.930Z,100931.94
2018-12-24T02:39:00.176Z,100937.33
2018-12-24T02:41:26.430Z,100939.14
2018-12-24T02:43:52.666Z,100935.66
2018-12-24T02:46:18.942Z,100932.14
2018-12-24T02:48:45.272Z,100927.03
2018-12-24T02:51:11.527Z,100926.79
2018-12-24T02:53:37.776Z,100925.36
2018-12-24T02:56:04.031Z,100920.75
2018-12-24T02:58:30.377Z,100929.81
2018-12-24T03:00:56.732Z,100917.59
2018-12-24T03:03:22.968Z,100913.45
2018-12-24T03:05:49.335Z,100920.27
2018-12-24T03:08:15.705Z,100920.06
2018-12-24T03:10:41.964Z,100917.98
2018-12-24T03:13:08.307Z,100915.85
2018-12-24T03:15:34.676Z,100908.36
2018-12-24T03:18:00.906Z,100909.80
2018-12-24T03:20:27.283Z,100895.63
2018-12-24T03:22:53.628Z,100900.34
2018-12-24T03:25:19.866Z,100904.18
2018-12-24T03:27:46.230Z,100898.24
2018-12-24T03:30:12.477Z,100898.06
2018-12-24T03:32:38.828Z,100898.80
2018-12-24T03:35:05.066Z,100892.15
2018-12-24T03:37:31.322Z,100890.79
2018-12-24T03:39:57.571Z,100894.36
2018-12-24T03:42:23.825Z,100889.45
2018-12-24T03:44:50.059Z,100885.35
2018-12-24T03:47:16.444Z,100889.36
2018-12-24T03:49:42.804Z,100884.86
2018-12-24T03:52:09.189Z,100883.58
2018-12-24T03:54:35.431Z,100875.16
2018-12-24T03:57:01.691Z,100876.80
2018-12-24T03:59:27.947Z,100882.17
2018-12-24T04:01:54.211Z,100871.47
2018-12-24T04:04:20.453Z,100872.70
2018-12-24T04:06:46.817Z,100875.53
2018-12-24T04:09:13.064Z,100865.78
2018-12-24T04:11:39.415Z,100867.98
2018-12-24T04:14:05.682Z,100874.30
2018-12-24T04:16:31.928Z,100859.17
2018-12-24T04:18:58.184Z,100863.13
2018-12-24T04:21:24.531Z,100860.26
2018-12-24T04:23:50.893Z,100857.48
2018-12-24T04:26:17.139Z,100856.80
2018-12-24T04:28:43.400Z,100857.93
2018-12-24T04:31:09.739Z,100857.05
2018-12-24T04:33:36.215Z,100847.18
2018-12-24T04:36:02.581Z,100845.90
2018-12-24T04:38:28.940Z,100845.47
2018-12-24T04:40:55.192Z,100846.84
2018-12-24T04:43:21.451Z,100846.56
2018-12-24T04:45:47.792Z,100847.45
2018-12-24T04:48:14.044Z,100845.81
2018-12-24T04:50:40.293Z,100840.02
2018-12-24T04:53:06.639Z,100837.98
2018-12-24T04:55:32.899Z,100837.21
2018-12-24T04:57:59.150Z,100839.39
2018-12-24T05:00:25.398Z,100844.52
2018-12-24T05:02:51.756Z,100842.88
2018-12-24T05:05:18.119Z,100839.86
2018-12-24T05:07:44.355Z,100835.55
2018-12-24T05:10:10.609Z,100831.27
2018-12-24T05:12:36.855Z,100830.14
2018-12-24T05:15:03.113Z,100832.77
2018-12-24T05:17:29.354Z,100839.63
2018-12-24T05:19:55.712Z,100828.20
2018-12-24T05:22:21.971Z,100829.56
2018-12-24T05:24:48.233Z,100831.76
2018-12-24T05:27:14.473Z,100827.47
2018-12-24T05:29:40.723Z,100833.45
2018-12-24T05:32:06.968Z,100823.70
2018-12-24T05:34:33.320Z,100830.70
2018-12-24T05:36:59.562Z,100832.64
2018-12-24T05:39:25.802Z,100830.52
2018-12-24T05:41:52.064Z,100833.19
2018-12-24T05:44:18.418Z,100828.13
2018-12-24T05:46:44.778Z,100829.41
2018-12-24T05:49:11.044Z,100833.77
2018-12-24T05:51:37.299Z,100830.03
2018-12-24T05:54:03.639Z,100829.33
2018-12-24T05:56:29.915Z,100829.04
2018-12-24T05:58:56.256Z,100827.05
2018-12-24T06:01:22.607Z,100825.11
2018-12-24T06:03:48.852Z,100827.30
2018-12-24T06:06:15.110Z,100823.93
2018-12-24T06:08:41.361Z,100829.67
2018-12-24T06:11:07.628Z,100831.53
2018-12-24T06:13:33.878Z,100834.27
2018-12-24T06:16:00.228Z,100829.55
2018-12-24T06:18:26.568Z,100826.58
2018-12-24T06:20:52.819Z,100831.34
2018-12-24T06:23:19.071Z,100830.56
2018-12-24T06:28:18.050Z,100823.00
2018-12-24T06:30:44.291Z,100823.48
2018-12-24T06:33:10.655Z,100813.31
2018-12-24T06:35:36.895Z,100812.61
2018-12-24T06:38:03.158Z,100815.68
2018-12-24T06:40:29.405Z,100811.42
2018-12-24T06:42:55.660Z,100811.46
2018-12-24T06:45:21.945Z,100805.11
2018-12-24T06:47:48.265Z,100806.50
2018-12-24T06:50:15.737Z,100809.27
2018-12-24T06:52:42.875Z,100798.97
2018-12-24T06:55:09.119Z,100810.17
2018-12-24T06:57:35.383Z,100801.19
2018-12-24T07:00:01.637Z,100800.78
2018-12-24T07:02:27.892Z,100803.41
2018-12-24T07:04:54.235Z,100804.33
2018-12-24T07:07:20.503Z,100793.86
2018-12-24T07:09:46.752Z,100801.35
2018-12-24T07:12:13.009Z,100796.69
2018-12-24T07:14:39.247Z,100792.44
2018-12-24T07:17:05.491Z,100795.09
2018-12-24T07:19:31.748Z,100791.69
2018-12-24T07:21:57.998Z,100790.53
2018-12-24T07:24:24.255Z,100792.53
2018-12-24T07:26:50.504Z,100793.81
2018-12-24T07:29:16.758Z,100790.78
2018-12-24T07:31:43.094Z,100786.45
2018-12-24T07:34:09.348Z,100784.27
2018-12-24T07:36:35.691Z,100783.36
2018-12-24T07:39:02.042Z,100786.27
2018-12-24T07:41:28.280Z,100779.72
2018-12-24T07:43:54.519Z,100784.28
2018-12-24T07:46:20.872Z,100779.80
2018-12-24T07:48:47.116Z,100783.98
2018-12-24T07:51:13.373Z,100777.41
2018-12-24T07:53:39.616Z,100776.84
2018-12-24T07:56:05.968Z,100773.80
2018-12-24T07:58:32.221Z,100776.20
2018-12-24T08:00:58.479Z,100778.66
2018-12-24T08:03:24.721Z,100780.31
2018-12-24T08:05:50.976Z,100768.14
2018-12-24T08:08:17.335Z,100773.59
2018-12-24T08:10:43.592Z,100769.28
2018-12-24T08:13:09.835Z,100772.18
2018-12-24T08:15:36.087Z,100778.55
2018-12-24T08:18:02.327Z,100778.48
2018-12-24T08:20:28.600Z,100779.33
2018-12-24T08:22:54.968Z,100777.81
2018-12-24T08:25:21.341Z,100777.89
2018-12-24T08:27:47.584Z,100774.31
2018-12-24T08:30:13.947Z,100765.08
2018-12-24T08:32:40.203Z,100774.23
2018-12-24T08:35:06.462Z,100764.48
2018-12-24T08:37:32.728Z,100777.00
2018-12-24T08:39:58.980Z,100773.73
2018-12-24T08:42:25.338Z,100773.02
2018-12-24T08:44:51.576Z,100771.88
2018-12-24T08:47:17.936Z,100771.07
2018-12-24T08:49:44.285Z,100774.51
2018-12-24T08:52:10.644Z,100772.75
2018-12-24T08:54:36.985Z,100775.42
2018-12-24T08:57:03.250Z,100774.68
2018-12-24T08:59:29.489Z,100775.59
2018-12-24T09:01:55.733Z,100768.78
2018-12-24T09:04:21.988Z,100776.06
2018-12-24T09:06:48.227Z,100775.29
2018-12-24T09:09:14.491Z,100779.95
2018-12-24T09:11:40.735Z,100772.22
2018-12-24T09:14:07.093Z,100775.52
2018-12-24T09:16:33.337Z,100774.14
2018-12-24T09:18:59.595Z,100774.44
2018-12-24T09:21:25.935Z,100766.75
2018-12-24T09:23:52.294Z,100762.36
2018-12-24T09:26:18.539Z,100757.54
2018-12-24T09:28:44.928Z,100756.66
2018-12-24T09:31:11.276Z,100753.22
2018-12-24T09:33:37.542Z,100751.84
2018-12-24T09:36:03.796Z,100746.14
2018-12-24T09:38:30.135Z,100754.70
2018-12-24T09:40:56.496Z,100747.79
2018-12-24T09:43:22.743Z,100743.00
2018-12-24T09:45:49.035Z,100743.00
2018-12-24T09:48:15.274Z,100737.06
2018-12-24T09:50:41.517Z,100738.72
2018-12-24T09:53:07.779Z,100750.25
2018-12-24T09:55:34.131Z,100748.50
2018-12-24T09:58:00.375Z,100746.30
2018-12-24T10:00:26.647Z,100743.16
2018-12-24T10:08:54.351Z,100740.49
2018-12-24T10:11:20.603Z,100727.20
2018-12-24T10:13:46.864Z,100726.33
2018-12-24T10:16:13.114Z,100724.14
2018-12-24T10:18:39.460Z,100724.54
2018-12-24T10:21:05.812Z,100716.89
2018-12-24T10:23:32.075Z,100710.92
2018-12-24T10:25:58.437Z,100718.95
2018-12-24T10:28:24.691Z,100715.98
2018-12-24T10:30:51.037Z,100706.50
2018-12-24T10:33:17.406Z,100707.71
2018-12-24T10:35:43.661Z,100716.24
2018-12-24T10:38:09.923Z,100715.36
2018-12-24T10:41:17.584Z,100713.24
2018-12-24T10:43:43.943Z,100712.03
2018-12-24T10:46:10.187Z,100712.06
2018-12-24T10:48:36.445Z,100703.53
2018-12-24T10:51:02.690Z,100712.54
2018-12-24T10:53:28.958Z,100704.45
2018-12-24T10:55:55.207Z,100714.87
2018-12-24T10:58:21.463Z,100713.22
2018-12-24T11:00:47.717Z,100712.84
2018-12-24T11:03:14.073Z,100718.75
2018-12-24T11:05:40.423Z,100720.43
2018-12-24T11:08:06.792Z,100719.22
2018-12-24T11:10:33.134Z,100713.69
2018-12-24T11:12:59.372Z,100710.76
2018-12-24T11:15:25.631Z,100648.48
2018-12-24T11:17:51.875Z,100699.22
2018-12-24T11:20:18.151Z,100705.33
2018-12-24T11:22:44.401Z,100701.08
2018-12-24T11:25:10.745Z,100699.73
2018-12-24T11:27:37.102Z,100699.33
2018-12-24T11:30:44.756Z,100701.02
2018-12-24T11:33:11.112Z,100699.33
2018-12-24T11:35:37.371Z,100700.88
2018-12-24T11:38:03.617Z,100701.34
2018-12-24T11:40:29.872Z,100698.34
2018-12-24T11:42:56.119Z,100686.78
2018-12-24T11:45:22.475Z,100686.00
2018-12-24T11:47:48.724Z,100685.29
2018-12-24T11:50:14.974Z,100677.77
2018-12-24T11:52:41.214Z,100675.30
2018-12-24T11:55:09.493Z,100673.64
2018-12-24T11:57:35.864Z,100671.05
2018-12-24T12:02:55.860Z,100666.05
2018-12-24T12:05:22.251Z,100670.39
2018-12-24T12:07:48.514Z,100667.12
2018-12-24T12:10:14.763Z,100664.21
2018-12-24T12:12:41.023Z,100668.66
2018-12-24T12:15:07.269Z,100672.50
2018-12-24T12:17:33.533Z,100673.72
2018-12-24T12:19:59.881Z,100670.75
2018-12-24T12:22:26.250Z,100671.16
2018-12-24T12:24:52.505Z,100666.80
2018-12-24T12:27:18.761Z,100665.92
2018-12-24T12:29:45.005Z,100658.73
2018-12-24T12:32:11.390Z,100660.08
2018-12-24T12:34:37.640Z,100650.29
2018-12-24T12:37:03.896Z,100652.02
2018-12-24T12:39:30.136Z,100648.92
2018-12-24T12:41:56.398Z,100659.48
2018-12-24T12:44:22.634Z,100651.54
2018-12-24T12:46:48.883Z,100659.61
2018-12-24T12:49:15.131Z,100671.95
2018-12-24T12:51:41.372Z,100666.73
2018-12-24T12:54:07.641Z,100668.89
2018-12-24T12:56:33.885Z,100657.66
2018-12-24T12:59:00.138Z,100661.10
2018-12-24T13:01:26.399Z,100661.91
2018-12-24T13:03:52.772Z,100661.44
2018-12-24T13:06:19.022Z,100659.66
2018-12-24T13:08:45.383Z,100665.66
2018-12-24T13:11:11.730Z,100669.00
2018-12-24T13:13:38.084Z,100662.93
2018-12-24T13:16:04.429Z,100665.77
2018-12-24T13:18:30.792Z,100671.64
2018-12-24T13:20:57.034Z,100673.77
2018-12-24T13:23:23.396Z,100666.72
2018-12-24T13:25:49.752Z,100657.11
2018-12-24T13:28:16.004Z,100668.11
2018-12-24T13:30:42.351Z,100667.87
2018-12-24T13:33:08.612Z,100669.38
2018-12-24T13:35:34.968Z,100677.77
2018-12-24T13:38:01.306Z,100682.69
2018-12-24T13:40:27.561Z,100675.67
2018-12-24T13:42:53.903Z,100682.38
2018-12-24T13:45:20.163Z,100672.49
2018-12-24T13:47:46.404Z,100670.67
2018-12-24T13:50:12.664Z,100667.60
2018-12-24T13:52:46.340Z,100666.69
2018-12-24T13:55:12.704Z,100674.30
2018-12-24T13:57:38.951Z,100679.91
2018-12-24T14:00:05.310Z,100677.06
2018-12-24T14:02:31.564Z,100678.12
2018-12-24T14:04:57.817Z,100677.53
2018-12-24T14:07:24.064Z,100659.95
2018-12-24T14:09:50.332Z,100661.16
2018-12-24T14:12:16.578Z,100668.36
2018-12-24T14:14:42.818Z,100666.56
2018-12-24T14:17:09.167Z,100673.62
2018-12-24T14:19:35.507Z,100666.75
2018-12-24T14:22:01.764Z,100666.75
2018-12-24T14:24:28.009Z,100674.71
2018-12-24T14:26:54.264Z,100671.41
2018-12-24T14:29:20.610Z,100667.50
2018-12-24T14:31:46.961Z,100672.22
2018-12-24T14:37:27.119Z,100665.35
2018-12-24T14:39:53.366Z,100669.59
2018-12-24T14:42:19.623Z,100667.50
2018-12-24T14:44:45.870Z,100666.23
2018-12-24T14:47:12.135Z,100661.91
2018-12-24T14:49:38.483Z,100657.75
2018-12-24T14:52:04.943Z,100654.13
2018-12-24T14:54:31.296Z,100635.02
2018-12-24T14:56:57.757Z,100632.50
2018-12-24T14:59:23.995Z,100634.29
2018-12-24T15:01:50.339Z,100640.94
2018-12-24T15:04:16.594Z,100635.63
2018-12-24T15:06:42.838Z,100638.81
2018-12-24T15:09:09.111Z,100632.92
2018-12-24T15:11:35.369Z,100633.70
2018-12-24T15:14:01.627Z,100639.39
2018-12-24T15:16:33.969Z,100633.98
2018-12-24T15:18:56.048Z,100627.51
2018-12-24T15:21:22.291Z,100629.38
2018-12-24T15:23:48.563Z,100622.50
2018-12-24T15:26:14.812Z,100616.50
2018-12-24T15:28:41.073Z,100613.91
2018-12-24T15:31:07.432Z,100611.97
2018-12-24T15:33:33.684Z,100616.11
2018-12-24T15:35:59.930Z,100613.45
2018-12-24T15:38:26.255Z,100616.00
2018-12-24T15:40:52.543Z,100621.23
2018-12-24T15:43:18.887Z,100615.38
2018-12-24T15:45:45.243Z,100609.95
2018-12-24T15:48:11.487Z,100607.80
2018-12-24T15:50:37.744Z,100605.58
2018-12-24T15:53:04.083Z,100609.38
2018-12-24T15:55:30.341Z,100606.86
2018-12-24T15:57:56.586Z,100594.94
2018-12-24T16:00:22.838Z,100599.18
2018-12-24T16:02:49.087Z,100593.66
2018-12-24T16:05:15.438Z,100598.38
2018-12-24T16:07:41.724Z,100596.58
2018-12-24T16:10:07.980Z,100598.27
2018-12-24T16:12:34.228Z,100599.48
2018-12-24T16:15:00.480Z,100598.97
2018-12-24T16:17:26.837Z,100597.58
2018-12-24T16:22:25.653Z,100596.48
2018-12-24T16:24:51.902Z,100598.47
2018-12-24T16:27:18.177Z,100595.80
2018-12-24T16:29:44.415Z,100596.64
2018-12-24T16:32:10.773Z,100592.70
2018-12-24T16:34:37.024Z,100592.16
2018-12-24T16:37:03.388Z,100589.95
2018-12-24T16:39:29.732Z,100588.28
2018-12-24T16:41:56.091Z,100581.00
2018-12-24T16:44:22.335Z,100569.89
2018-12-24T16:46:48.693Z,100572.45
2018-12-24T16:49:15.031Z,100565.52
2018-12-24T16:51:41.289Z,100569.71
2018-12-24T16:54:07.635Z,100559.59
2018-12-24T16:56:34.007Z,100558.02
2018-12-24T16:59:00.259Z,100562.80
2018-12-24T17:01:26.515Z,100568.32
2018-12-24T17:03:52.755Z,100563.61
2018-12-24T17:06:19.097Z,100561.34
2018-12-24T17:08:45.363Z,100560.06
2018-12-24T17:11:11.604Z,100554.47
2018-12-24T17:13:37.968Z,100558.78
2018-12-24T17:16:04.212Z,100550.16
2018-12-24T17:18:30.612Z,100546.33
2018-12-24T17:20:56.858Z,100547.34
2018-12-24T17:23:23.100Z,100545.23
2018-12-24T17:25:49.356Z,100551.22
2018-12-24T17:28:15.712Z,100545.37
2018-12-24T17:30:41.952Z,100539.48
2018-12-24T17:33:08.308Z,100530.77
2018-12-24T17:35:34.556Z,100531.82
2018-12-24T17:38:00.912Z,100522.56
2018-12-24T17:40:27.253Z,100526.54
2018-12-24T17:42:53.492Z,100528.39
2018-12-24T17:45:19.769Z,100508.95
2018-12-24T17:47:46.009Z,100500.20
2018-12-24T17:50:12.348Z,100500.30
2018-12-24T17:52:38.600Z,100502.59
2018-12-24T17:55:04.856Z,100494.09
2018-12-24T17:57:31.099Z,100492.01
2018-12-24T17:59:57.370Z,100493.79
2018-12-24T18:02:23.708Z,100490.83
2018-12-24T18:04:49.970Z,100487.80
2018-12-24T18:07:16.210Z,100477.92
2018-12-24T18:09:42.608Z,100472.41
2018-12-24T18:12:08.950Z,100477.55
2018-12-24T18:14:35.200Z,100472.91
2018-12-24T18:17:01.444Z,100469.94
2018-12-24T18:19:27.711Z,100472.53
2018-12-24T18:21:53.964Z,100484.14
2018-12-24T18:24:20.217Z,100484.11
2018-12-24T18:26:46.470Z,100483.52
2018-12-24T18:29:12.717Z,100485.84
2018-12-24T18:31:38.973Z,100489.96
2018-12-24T18:34:05.222Z,100489.39
2018-12-24T18:36:31.478Z,100485.95
2018-12-24T18:38:57.722Z,100490.20
2018-12-24T18:41:24.084Z,100500.91
2018-12-24T18:43:50.431Z,100499.62
2018-12-24T18:46:16.703Z,100500.78
2018-12-24T18:48:43.046Z,100507.34
2018-12-24T18:51:09.286Z,100492.09
2018-12-24T18:53:35.660Z,100494.05
2018-12-24T18:56:02.009Z,100494.02
2018-12-24T18:58:28.358Z,100486.44
2018-12-24T19:00:54.610Z,100483.16
2018-12-24T19:03:20.851Z,100475.92
2018-12-24T19:05:47.272Z,100468.31
2018-12-24T19:08:13.661Z,100471.78
2018-12-24T19:13:12.756Z,100464.73
2018-12-24T19:15:39.111Z,100470.36
2018-12-24T19:18:05.368Z,100464.52
2018-12-24T19:20:31.615Z,100459.50
2018-12-24T19:22:57.880Z,100456.38
2018-12-24T19:25:24.122Z,100452.03
2018-12-24T19:27:50.395Z,100448.94
2018-12-24T19:30:16.729Z,100441.26
2018-12-24T19:32:42.983Z,100438.51
2018-12-24T19:35:09.223Z,100428.23
2018-12-24T19:37:35.476Z,100427.05
2018-12-24T19:40:01.731Z,100415.44
2018-12-24T19:42:27.989Z,100414.88
2018-12-24T19:44:54.238Z,100418.21
2018-12-24T19:47:20.476Z,100403.50
2018-12-24T19:49:46.730Z,100406.13
2018-12-24T19:52:12.972Z,100402.89
2018-12-24T19:54:39.224Z,100409.55
2018-12-24T19:57:05.464Z,100406.98
2018-12-24T19:59:31.826Z,100405.73
2018-12-24T20:01:58.065Z,100404.21
2018-12-24T20:04:24.318Z,100406.48
2018-12-24T20:06:50.563Z,100401.06
2018-12-24T20:09:36.681Z,100395.19
2018-12-24T20:12:03.023Z,100392.94
2018-12-24T20:14:29.288Z,100390.31
2018-12-24T20:16:55.545Z,100387.51
2018-12-24T20:19:21.787Z,100383.38
2018-12-24T20:21:48.132Z,100374.98
2018-12-24T20:24:14.390Z,100372.52
2018-12-24T20:26:40.635Z,100369.23
2018-12-24T20:29:06.998Z,100367.16
2018-12-24T20:31:33.256Z,100364.11
2018-12-24T20:33:59.503Z,100359.07
2018-12-24T20:36:25.875Z,100362.71
2018-12-24T20:38:52.106Z,100360.30
2018-12-24T20:41:18.373Z,100358.78
2018-12-24T20:43:44.621Z,100353.75
2018-12-24T20:46:10.875Z,100353.83
2018-12-24T20:48:37.118Z,100341.02
2018-12-24T20:51:03.380Z,100327.34
2018-12-24T20:53:29.718Z,100337.18
2018-12-24T20:55:56.082Z,100333.80
2018-12-24T20:58:22.325Z,100326.93
2018-12-24T21:00:48.686Z,100330.83
2018-12-24T21:03:15.028Z,100332.98
2018-12-24T21:05:41.383Z,100323.00
2018-12-24T21:08:07.637Z,100318.70
2018-12-24T21:10:33.889Z,100314.42
2018-12-24T21:13:00.142Z,100312.59
2018-12-24T21:15:26.382Z,100312.50
2018-12-24T21:17:52.644Z,100309.77
2018-12-24T21:20:18.888Z,100306.11
2018-12-24T21:22:45.151Z,100302.56
2018-12-24T21:25:11.491Z,100303.75
2018-12-24T21:27:37.746Z,100298.16
2018-12-24T21:33:17.962Z,100294.17
2018-12-24T21:35:44.207Z,100285.19
2018-12-24T21:38:10.565Z,100282.62
2018-12-24T21:40:36.812Z,100282.80
2018-12-24T21:43:03.062Z,100284.16
2018-12-24T21:45:29.316Z,100288.16
2018-12-24T21:47:55.579Z,100282.35
2018-12-24T21:50:21.921Z,100273.04
2018-12-24T21:52:48.286Z,100276.17
2018-12-24T21:55:14.532Z,100268.30
2018-12-24T21:57:40.893Z,100266.64
2018-12-24T22:00:07.231Z,100264.24
2018-12-24T22:02:33.488Z,100266.07
2018-12-24T22:04:59.733Z,100261.48
2018-12-24T22:07:25.971Z,100253.95
2018-12-24T22:09:52.244Z,100255.47
2018-12-24T22:12:18.490Z,100245.27
2018-12-24T22:14:44.749Z,100250.07
2018-12-24T22:17:11.092Z,100240.36
2018-12-24T22:19:37.454Z,100238.81
2018-12-24T22:22:03.701Z,100234.17
2018-12-24T22:24:29.958Z,100227.42
2018-12-24T22:26:56.214Z,100225.81
2018-12-24T22:29:22.475Z,100226.73
2018-12-24T22:31:48.719Z,100224.25
2018-12-24T22:34:15.080Z,100223.11
2018-12-24T22:36:41.323Z,100233.62
2018-12-24T22:39:07.685Z,100234.97
2018-12-24T22:41:33.934Z,100228.23
2018-12-24T22:44:00.205Z,100217.61
2018-12-24T22:46:26.458Z,100219.45
2018-12-24T22:48:52.836Z,100210.72
2018-12-24T22:51:19.063Z,100203.21
2018-12-24T22:53:45.316Z,100205.02
2018-12-24T22:56:11.576Z,100199.31
2018-12-24T22:58:37.821Z,100197.00
2018-12-24T23:01:04.180Z,100186.73
2018-12-24T23:03:30.524Z,100186.73
2018-12-24T23:05:56.784Z,100178.61
2018-12-24T23:08:23.145Z,100176.97
2018-12-24T23:10:49.412Z,100169.28
2018-12-24T23:13:15.759Z,100163.27
2018-12-24T23:15:42.015Z,100161.63
2018-12-24T23:18:08.272Z,100153.27
2018-12-24T23:20:34.636Z,100139.72
2018-12-24T23:23:00.876Z,100141.52
2018-12-24T23:25:27.132Z,100133.96
2018-12-24T23:27:53.477Z,100123.88
2018-12-24T23:30:19.735Z,100121.38
2018-12-24T23:32:46.094Z,100113.39
2018-12-24T23:35:12.348Z,100109.69
2018-12-24T23:37:38.601Z,100094.45
2018-12-24T23:40:04.948Z,100086.33
2018-12-24T23:42:31.208Z,100090.23
2018-12-24T23:44:57.457Z,100082.14
2018-12-24T23:47:23.708Z,100086.95
2018-12-24T23:49:49.953Z,100078.09
2018-12-24T23:52:16.211Z,100074.73
2018-12-24T23:54:42.455Z,100071.78
2018-12-24T23:57:08.716Z,100082.20
2018-12-24T23:59:34.967Z,100082.69
